Time;durP1;ratioP1;P1;durP2;ratioP2;P2;SDS_P1;SDS_P2;PMS_P1;PMS_P2;Temp;Humidity;BMP_temperature;BMP_pressure;BME280_temperature;BME280_humidity;BME280_pressure;Samples;Min_cycle;Max_cycle;Signal;HPM_P1;HPM_P2
2023/04/15 00:01:58;;;;;;;2.40;2.30;;;;;;;;;;10263581;28;20704;-79
2023/04/15 00:06:59;;;;;;;2.17;2.08;;;;;;;;;;10247966;28;20252;-76
2023/04/15 00:12:01;;;;;;;1.88;1.77;;;;;;;;;;10232394;28;20300;-77
2023/04/15 00:17:02;;;;;;;2.05;1.85;;;;;;;;;;10251629;28;20283;-78
2023/04/15 00:22:03;;;;;;;2.63;2.28;;;;;;;;;;10234614;28;20228;-77
2023/04/15 00:27:04;;;;;;;2.45;2.22;;;;;;;;;;10253465;28;20826;-78
2023/04/15 00:32:06;;;;;;;3.10;2.90;;;;;;;;;;10251925;28;20239;-78
2023/04/15 00:37:07;;;;;;;4.10;3.70;;;;;;;;;;10236329;28;20236;-77
2023/04/15 00:42:08;;;;;;;3.38;2.80;;;;;;;;;;10243886;28;20260;-77
2023/04/15 00:47:10;;;;;;;3.40;2.50;;;;;;;;;;10228523;28;20316;-75
2023/04/15 00:52:12;;;;;;;3.63;2.63;;;;;;;;;;10252581;28;20661;-75
2023/04/15 00:57:13;;;;;;;2.45;2.22;;;;;;;;;;10254282;28;20234;-76
2023/04/15 01:02:15;;;;;;;2.42;2.22;;;;;;;;;;10234142;28;20226;-73
2023/04/15 01:07:16;;;;;;;2.13;2.03;;;;;;;;;;10245157;28;20229;-77
2023/04/15 01:12:17;;;;;;;2.75;2.58;;;;;;;;;;10252279;28;20305;-76
2023/04/15 01:17:19;;;;;;;3.58;3.28;;;;;;;;;;10247165;28;20284;-79
2023/04/15 01:22:21;;;;;;;3.15;2.88;;;;;;;;;;10229827;28;20304;-76
2023/04/15 01:27:22;;;;;;;5.60;4.05;;;;;;;;;;10261035;28;20226;-79
2023/04/15 01:32:23;;;;;;;5.05;4.25;;;;;;;;;;10234689;28;20605;-77
2023/04/15 01:37:26;;;;;;;5.47;4.97;;;;;;;;;;10216568;28;20233;-78
2023/04/15 01:42:27;;;;;;;6.72;4.45;;;;;;;;;;10265886;28;20251;-77
2023/04/15 01:47:28;;;;;;;7.80;4.40;;;;;;;;;;10230093;28;20217;-76
2023/04/15 01:52:29;;;;;;;7.20;6.10;;;;;;;;;;10256137;28;20466;-77
2023/04/15 01:57:31;;;;;;;4.95;4.45;;;;;;;;;;10224109;28;20618;-79
2023/04/15 02:02:33;;;;;;;7.32;5.28;;;;;;;;;;10227610;28;20580;-77
2023/04/15 02:07:34;;;;;;;7.57;5.43;;;;;;;;;;10225765;28;20221;-78
2023/04/15 02:12:36;;;;;;;9.40;5.60;;;;;;;;;;10241499;28;20218;-77
2023/04/15 02:17:37;;;;;;;6.03;4.90;;;;;;;;;;10232683;28;21065;-77
2023/04/15 02:22:41;;;;;;;6.60;5.40;;;;;;;;;;10206733;28;20220;-79
2023/04/15 02:27:43;;;;;;;5.07;4.30;;;;;;;;;;10229663;28;20221;-76
2023/04/15 02:32:44;;;;;;;5.22;3.80;;;;;;;;;;10216889;28;20316;-76
2023/04/15 02:37:45;;;;;;;4.55;3.28;;;;;;;;;;10228278;28;20320;-76
2023/04/15 02:42:46;;;;;;;3.75;2.95;;;;;;;;;;10235876;28;20233;-75
2023/04/15 02:47:50;;;;;;;3.22;2.92;;;;;;;;;;10246632;28;20221;-77
2023/04/15 02:52:51;;;;;;;1.95;1.85;;;;;;;;;;10235987;28;20354;-77
2023/04/15 02:57:52;;;;;;;2.45;2.30;;;;;;;;;;10225510;28;20236;-78
2023/04/15 03:02:58;;;;;;;2.53;2.40;;;;;;;;;;10248954;28;20221;-76
2023/04/15 03:08:00;;;;;;;1.90;1.80;;;;;;;;;;10250616;28;20226;-78
2023/04/15 03:13:01;;;;;;;1.25;1.25;;;;;;;;;;10266553;28;20852;-77
2023/04/15 03:18:02;;;;;;;2.03;1.90;;;;;;;;;;10237709;28;20759;-75
2023/04/15 03:23:03;;;;;;;2.80;2.22;;;;;;;;;;10249537;28;20224;-77
2023/04/15 03:28:04;;;;;;;1.92;1.83;;;;;;;;;;10241736;28;20217;-78
2023/04/15 03:33:07;;;;;;;1.63;1.52;;;;;;;;;;10255395;28;20251;-77
2023/04/15 03:38:08;;;;;;;2.00;1.30;;;;;;;;;;10251561;28;20252;-77
2023/04/15 03:43:10;;;;;;;1.33;1.20;;;;;;;;;;10239105;28;20238;-80
2023/04/15 03:48:11;;;;;;;3.10;1.60;;;;;;;;;;10250820;28;20583;-77
2023/04/15 03:53:12;;;;;;;2.05;1.95;;;;;;;;;;10264190;28;20804;-76
2023/04/15 03:58:13;;;;;;;2.55;2.38;;;;;;;;;;10254601;28;20951;-81
2023/04/15 04:03:14;;;;;;;1.85;1.63;;;;;;;;;;10259345;28;20224;-77
2023/04/15 04:08:15;;;;;;;2.10;1.98;;;;;;;;;;10245315;28;20280;-76
2023/04/15 04:13:16;;;;;;;1.50;1.40;;;;;;;;;;10234252;28;20210;-79
2023/04/15 04:18:17;;;;;;;1.52;1.42;;;;;;;;;;10231785;28;20712;-75
2023/04/15 04:23:18;;;;;;;1.00;1.00;;;;;;;;;;10238796;28;20327;-78
2023/04/15 04:28:19;;;;;;;11.48;6.45;;;;;;;;;;10267239;28;20606;-78
2023/04/15 04:33:20;;;;;;;3.53;2.03;;;;;;;;;;10235157;28;20225;-77
2023/04/15 04:38:21;;;;;;;1.45;1.35;;;;;;;;;;10244953;28;20232;-80
2023/04/15 04:43:22;;;;;;;1.30;1.20;;;;;;;;;;10251507;28;20217;-77
2023/04/15 04:48:23;;;;;;;1.38;1.27;;;;;;;;;;10241854;28;20214;-80
2023/04/15 04:53:25;;;;;;;1.55;1.38;;;;;;;;;;10227259;28;21035;-76
2023/04/15 04:58:26;;;;;;;1.65;1.55;;;;;;;;;;10266269;28;20253;-76
2023/04/15 05:03:27;;;;;;;1.27;1.08;;;;;;;;;;10249642;28;20206;-77
2023/04/15 05:08:28;;;;;;;1.95;1.48;;;;;;;;;;10243443;28;20278;-76
2023/04/15 05:13:29;;;;;;;1.58;1.45;;;;;;;;;;10249656;28;20236;-78
2023/04/15 05:18:31;;;;;;;1.73;1.60;;;;;;;;;;10223530;28;20252;-78
2023/04/15 05:23:32;;;;;;;1.33;1.30;;;;;;;;;;10231710;28;20225;-78
2023/04/15 05:28:33;;;;;;;1.98;1.77;;;;;;;;;;10216810;28;20324;-78
2023/04/15 05:33:34;;;;;;;2.30;2.20;;;;;;;;;;10242606;28;20213;-79
2023/04/15 05:38:36;;;;;;;1.73;1.52;;;;;;;;;;10241182;28;20220;-79
2023/04/15 05:43:37;;;;;;;2.03;1.83;;;;;;;;;;10240550;28;20270;-79
2023/04/15 05:48:38;;;;;;;2.22;2.13;;;;;;;;;;10240560;28;20226;-80
2023/04/15 05:53:40;;;;;;;2.83;1.85;;;;;;;;;;10218318;28;20217;-79
2023/04/15 06:04:33;;;;;;;2.13;2.03;;;;;;;;;;10226139;28;20911;-78
2023/04/15 06:09:35;;;;;;;3.17;2.40;;;;;;;;;;10253374;28;20349;-77
2023/04/15 06:14:36;;;;;;;3.25;2.47;;;;;;;;;;10227987;28;20226;-78
2023/04/15 06:19:37;;;;;;;3.33;2.67;;;;;;;;;;10247401;28;20241;-78
2023/04/15 06:24:38;;;;;;;3.05;2.70;;;;;;;;;;10233641;28;20598;-77
2023/04/15 06:29:39;;;;;;;3.08;2.80;;;;;;;;;;10250277;28;20807;-78
2023/04/15 06:34:40;;;;;;;3.53;2.95;;;;;;;;;;10235838;28;20222;-77
2023/04/15 06:39:43;;;;;;;5.57;2.85;;;;;;;;;;10246278;28;20213;-78
2023/04/15 06:44:44;;;;;;;3.15;2.72;;;;;;;;;;10226958;28;20324;-77
2023/04/15 06:49:45;;;;;;;3.72;3.15;;;;;;;;;;10263415;28;20236;-79
2023/04/15 06:54:46;;;;;;;3.35;3.03;;;;;;;;;;10226583;28;20716;-77
2023/04/15 06:59:47;;;;;;;3.92;2.95;;;;;;;;;;10240411;28;20249;-79
2023/04/15 07:04:48;;;;;;;4.55;3.30;;;;;;;;;;10250109;28;20250;-77
2023/04/15 07:09:50;;;;;;;4.30;3.90;;;;;;;;;;10228410;28;20218;-79
2023/04/15 07:14:51;;;;;;;5.00;4.20;;;;;;;;;;10248616;28;20826;-80
2023/04/15 07:19:52;;;;;;;5.53;4.85;;;;;;;;;;10229396;28;20228;-78
2023/04/15 07:24:53;;;;;;;10.32;5.25;;;;;;;;;;10234002;28;20224;-77
2023/04/15 07:29:54;;;;;;;15.20;6.47;;;;;;;;;;10247650;28;20224;-79
2023/04/15 07:34:55;;;;;;;14.63;6.68;;;;;;;;;;10231710;28;20252;-80
2023/04/15 07:39:56;;;;;;;15.30;6.47;;;;;;;;;;10248455;28;21096;-80
2023/04/15 07:44:57;;;;;;;11.85;7.95;;;;;;;;;;10245068;28;20311;-79
2023/04/15 07:49:59;;;;;;;15.68;7.38;;;;;;;;;;10229245;28;20273;-78
2023/04/15 07:54:59;;;;;;;20.20;8.80;;;;;;;;;;10244133;28;20271;-78
2023/04/15 08:00:02;;;;;;;20.05;9.98;;;;;;;;;;10244479;28;20880;-76
2023/04/15 08:05:14;;;;;;;26.10;10.25;;;;;;;;;;10245998;28;20227;-77
2023/04/15 08:10:15;;;;;;;28.48;11.82;;;;;;;;;;10242628;28;20206;-81
2023/04/15 08:15:16;;;;;;;24.30;12.07;;;;;;;;;;10247706;28;20245;-78
2023/04/15 08:20:17;;;;;;;26.33;12.95;;;;;;;;;;10245310;28;20205;-79
2023/04/15 08:25:19;;;;;;;31.52;14.07;;;;;;;;;;10258490;28;20892;-77
2023/04/15 08:30:20;;;;;;;32.47;13.95;;;;;;;;;;10245941;28;20233;-77
2023/04/15 08:35:21;;;;;;;32.30;15.30;;;;;;;;;;10247290;28;20228;-77
2023/04/15 08:40:25;;;;;;;37.33;16.17;;;;;;;;;;10247000;28;20241;-76
2023/04/15 08:45:26;;;;;;;35.85;16.35;;;;;;;;;;10244523;28;20305;-77
2023/04/15 08:50:28;;;;;;;37.70;17.10;;;;;;;;;;10249739;28;20271;-78
2023/04/15 08:55:34;;;;;;;38.30;16.52;;;;;;;;;;10233196;28;20317;-76
2023/04/15 09:00:35;;;;;;;42.97;18.67;;;;;;;;;;10263945;28;21034;-79
2023/04/15 09:05:37;;;;;;;35.35;17.08;;;;;;;;;;10233730;28;20225;-77
2023/04/15 09:10:38;;;;;;;33.50;17.13;;;;;;;;;;10219613;28;20234;-78
2023/04/15 09:15:39;;;;;;;44.58;18.23;;;;;;;;;;10269274;28;20586;-76
2023/04/15 09:20:41;;;;;;;36.05;16.90;;;;;;;;;;10232784;28;20217;-75
2023/04/15 09:25:42;;;;;;;37.08;17.55;;;;;;;;;;10251828;28;20256;-76
2023/04/15 09:30:46;;;;;;;38.47;17.83;;;;;;;;;;10249034;28;20915;-76
2023/04/15 09:36:01;;;;;;;31.23;16.60;;;;;;;;;;10233069;28;20221;-79
2023/04/15 09:41:02;;;;;;;30.48;16.35;;;;;;;;;;10231995;28;20222;-77
2023/04/15 09:46:03;;;;;;;37.40;16.50;;;;;;;;;;10229253;28;20288;-79
2023/04/15 09:51:04;;;;;;;27.90;15.50;;;;;;;;;;10231665;28;20228;-79
2023/04/15 09:56:07;;;;;;;34.05;17.38;;;;;;;;;;10226021;28;20304;-76
2023/04/15 10:01:08;;;;;;;33.10;17.30;;;;;;;;;;10235589;28;21610;-78
2023/04/15 10:06:10;;;;;;;27.90;16.52;;;;;;;;;;10231083;28;20232;-79
2023/04/15 10:11:11;;;;;;;29.48;17.25;;;;;;;;;;10231087;28;20977;-76
2023/04/15 10:16:16;;;;;;;32.28;15.57;;;;;;;;;;10217572;28;20248;-76
2023/04/15 10:21:18;;;;;;;28.63;15.25;;;;;;;;;;10233441;28;20229;-78
2023/04/15 10:26:19;;;;;;;24.23;15.27;;;;;;;;;;10250852;28;20969;-79
2023/04/15 10:31:21;;;;;;;28.05;16.20;;;;;;;;;;10237864;28;20224;-76
2023/04/15 10:36:22;;;;;;;32.67;15.93;;;;;;;;;;10249713;28;20295;-77
2023/04/15 10:41:25;;;;;;;22.98;14.27;;;;;;;;;;10243225;28;20227;-74
2023/04/15 10:46:37;;;;;;;24.63;15.40;;;;;;;;;;10241165;28;20221;-77
2023/04/15 10:51:40;;;;;;;24.75;14.57;;;;;;;;;;10224348;28;20253;-75
2023/04/15 10:56:45;;;;;;;22.75;15.25;;;;;;;;;;10262782;28;20217;-74
2023/04/15 11:01:58;;;;;;;22.98;15.00;;;;;;;;;;10241951;28;20255;-77
2023/04/15 11:07:06;;;;;;;24.58;15.48;;;;;;;;;;10264898;28;20742;-75
2023/04/15 11:12:08;;;;;;;21.08;13.77;;;;;;;;;;10234197;28;20229;-77
2023/04/15 11:17:09;;;;;;;26.05;16.27;;;;;;;;;;10244233;28;20356;-77
2023/04/15 11:22:11;;;;;;;22.05;14.27;;;;;;;;;;10214166;28;20225;-77
2023/04/15 11:27:20;;;;;;;23.13;14.38;;;;;;;;;;10251631;28;20232;-76
2023/04/15 11:32:21;;;;;;;25.35;13.98;;;;;;;;;;10251300;28;20222;-75
2023/04/15 11:37:28;;;;;;;23.52;16.10;;;;;;;;;;10238207;28;20343;-76
2023/04/15 11:42:29;;;;;;;23.42;13.68;;;;;;;;;;10247205;28;20287;-75
2023/04/15 11:47:30;;;;;;;26.08;14.95;;;;;;;;;;10247119;28;20221;-78
2023/04/15 11:52:31;;;;;;;22.90;13.98;;;;;;;;;;10250093;28;20307;-76
2023/04/15 11:57:32;;;;;;;22.17;14.88;;;;;;;;;;10230625;28;20296;-77
2023/04/15 12:02:36;;;;;;;23.05;14.90;;;;;;;;;;10247773;28;20793;-76
2023/04/15 12:07:55;;;;;;;23.98;14.15;;;;;;;;;;10241628;28;20214;-76
2023/04/15 12:12:56;;;;;;;21.50;14.80;;;;;;;;;;10234981;28;20275;-77
2023/04/15 12:17:59;;;;;;;24.63;15.82;;;;;;;;;;10246149;28;20241;-74
2023/04/15 12:23:06;;;;;;;27.15;15.63;;;;;;;;;;10229440;28;20235;-75
2023/04/15 12:28:11;;;;;;;22.88;14.52;;;;;;;;;;10230249;28;20244;-76
2023/04/15 12:33:12;;;;;;;21.35;14.13;;;;;;;;;;10261202;28;20576;-75
2023/04/15 12:38:14;;;;;;;23.42;13.35;;;;;;;;;;10230301;28;20241;-76
2023/04/15 12:43:15;;;;;;;20.98;13.60;;;;;;;;;;10237848;28;20704;-75
2023/04/15 12:48:16;;;;;;;26.00;15.55;;;;;;;;;;10254808;28;20234;-78
2023/04/15 12:53:17;;;;;;;21.98;13.55;;;;;;;;;;10235400;28;20221;-77
2023/04/15 12:58:18;;;;;;;18.77;12.70;;;;;;;;;;10240161;28;20252;-78
2023/04/15 13:03:19;;;;;;;20.90;13.18;;;;;;;;;;10240460;28;20229;-79
2023/04/15 13:08:20;;;;;;;18.30;12.70;;;;;;;;;;10209961;28;20316;-75
2023/04/15 13:13:21;;;;;;;20.15;13.77;;;;;;;;;;10243190;28;20638;-76
2023/04/15 13:18:22;;;;;;;16.65;12.65;;;;;;;;;;10245781;28;20217;-78
2023/04/15 13:23:23;;;;;;;23.05;13.75;;;;;;;;;;10240621;28;20251;-76
2023/04/15 13:28:25;;;;;;;17.55;12.52;;;;;;;;;;10238073;28;20234;-75
2023/04/15 13:33:26;;;;;;;19.50;13.80;;;;;;;;;;10238761;28;20358;-75
2023/04/15 13:38:27;;;;;;;17.77;12.27;;;;;;;;;;10244391;28;20236;-77
2023/04/15 13:43:28;;;;;;;18.80;12.25;;;;;;;;;;10240016;28;20225;-76
2023/04/15 13:48:29;;;;;;;18.65;12.13;;;;;;;;;;10257766;28;20225;-77
2023/04/15 13:53:30;;;;;;;18.90;12.88;;;;;;;;;;10241192;28;20300;-74
2023/04/15 13:58:31;;;;;;;17.63;12.52;;;;;;;;;;10220395;28;20345;-79
2023/04/15 14:03:32;;;;;;;20.13;13.02;;;;;;;;;;10238801;28;21113;-78
2023/04/15 14:08:33;;;;;;;18.23;12.63;;;;;;;;;;10253101;28;20221;-75
2023/04/15 14:13:34;;;;;;;18.38;12.90;;;;;;;;;;10227642;28;20272;-76
2023/04/15 14:18:36;;;;;;;22.45;14.18;;;;;;;;;;10226256;28;20642;-77
2023/04/15 14:23:37;;;;;;;22.42;12.95;;;;;;;;;;10240487;28;20232;-77
2023/04/15 14:28:38;;;;;;;18.67;12.85;;;;;;;;;;10241898;28;20232;-75
2023/04/15 14:33:39;;;;;;;24.02;13.90;;;;;;;;;;10230054;28;20908;-76
2023/04/15 14:38:40;;;;;;;23.77;14.90;;;;;;;;;;10246454;28;20232;-77
2023/04/15 14:43:41;;;;;;;20.02;12.80;;;;;;;;;;10248289;28;20247;-78
2023/04/15 14:48:42;;;;;;;23.70;14.57;;;;;;;;;;10240357;28;20673;-76
2023/04/15 14:53:43;;;;;;;22.25;13.02;;;;;;;;;;10228991;28;20228;-81
2023/04/15 14:58:44;;;;;;;29.42;14.30;;;;;;;;;;10245580;28;20606;-77
2023/04/15 15:03:45;;;;;;;19.80;13.40;;;;;;;;;;10247393;28;21074;-76
2023/04/15 15:08:46;;;;;;;19.77;12.93;;;;;;;;;;10212872;28;21018;-75
2023/04/15 15:13:47;;;;;;;20.98;13.13;;;;;;;;;;10233005;28;20279;-77
2023/04/15 15:18:50;;;;;;;21.88;13.95;;;;;;;;;;10222040;28;20225;-76
2023/04/15 15:23:51;;;;;;;23.30;13.45;;;;;;;;;;10232279;28;20262;-76
2023/04/15 15:28:52;;;;;;;22.73;14.05;;;;;;;;;;10248091;28;20226;-76
2023/04/15 15:33:53;;;;;;;21.52;13.55;;;;;;;;;;10241321;28;21267;-75
2023/04/15 15:38:54;;;;;;;21.73;13.25;;;;;;;;;;10235993;28;21492;-73
2023/04/15 15:43:55;;;;;;;20.85;13.10;;;;;;;;;;10251698;28;20221;-75
2023/04/15 15:48:57;;;;;;;24.08;14.45;;;;;;;;;;10232693;28;20277;-76
2023/04/15 15:53:58;;;;;;;21.60;13.30;;;;;;;;;;10253238;28;20591;-75
2023/04/15 15:58:59;;;;;;;20.48;13.13;;;;;;;;;;10250117;28;20226;-79
2023/04/15 16:04:00;;;;;;;23.33;13.10;;;;;;;;;;10245605;28;20607;-75
2023/04/15 16:09:01;;;;;;;15.85;11.15;;;;;;;;;;10252832;28;20252;-75
2023/04/15 16:14:03;;;;;;;18.27;12.25;;;;;;;;;;10249126;28;20256;-74
2023/04/15 16:19:04;;;;;;;20.35;12.43;;;;;;;;;;10245264;28;20241;-74
2023/04/15 16:24:05;;;;;;;20.10;13.10;;;;;;;;;;10240692;28;20222;-75
2023/04/15 16:29:06;;;;;;;17.13;12.30;;;;;;;;;;10244416;28;20317;-76
2023/04/15 16:34:07;;;;;;;17.33;12.60;;;;;;;;;;10248476;28;21038;-77
2023/04/15 16:39:08;;;;;;;16.48;12.30;;;;;;;;;;10248010;28;20259;-75
2023/04/15 16:44:09;;;;;;;17.20;12.07;;;;;;;;;;10243186;28;20228;-76
2023/04/15 16:49:11;;;;;;;16.85;10.68;;;;;;;;;;10249854;28;20880;-77
2023/04/15 16:54:11;;;;;;;19.63;12.00;;;;;;;;;;10249088;28;20225;-76
2023/04/15 16:59:12;;;;;;;17.55;11.18;;;;;;;;;;10239449;28;20220;-76
2023/04/15 17:04:13;;;;;;;17.75;10.85;;;;;;;;;;10223041;28;20240;-76
2023/04/15 17:09:14;;;;;;;16.73;10.65;;;;;;;;;;10241366;28;20365;-79
2023/04/15 17:14:15;;;;;;;14.75;10.55;;;;;;;;;;10218532;28;20236;-75
2023/04/15 17:19:16;;;;;;;13.00;9.25;;;;;;;;;;10221602;28;20236;-76
2023/04/15 17:24:17;;;;;;;14.55;9.52;;;;;;;;;;10240550;28;20229;-76
2023/04/15 17:29:19;;;;;;;14.43;10.10;;;;;;;;;;10242017;28;20233;-75
2023/04/15 17:34:20;;;;;;;14.82;9.88;;;;;;;;;;10259506;28;20213;-77
2023/04/15 17:39:21;;;;;;;12.45;10.05;;;;;;;;;;10249234;28;20302;-76
2023/04/15 17:44:22;;;;;;;19.25;10.73;;;;;;;;;;10228444;28;20221;-79
2023/04/15 17:49:23;;;;;;;17.42;10.30;;;;;;;;;;10214022;28;20229;-82
2023/04/15 17:54:24;;;;;;;14.45;10.13;;;;;;;;;;10231262;28;20300;-77
2023/04/15 17:59:25;;;;;;;13.32;10.23;;;;;;;;;;10210646;28;20866;-76
2023/04/15 18:04:26;;;;;;;17.80;10.45;;;;;;;;;;10239270;28;20248;-79
2023/04/15 18:09:27;;;;;;;16.45;10.45;;;;;;;;;;10237129;28;20281;-83
2023/04/15 18:14:28;;;;;;;16.45;10.52;;;;;;;;;;10243031;28;20739;-77
2023/04/15 18:19:30;;;;;;;15.57;10.25;;;;;;;;;;10245757;28;20241;-80
2023/04/15 18:24:31;;;;;;;14.93;10.30;;;;;;;;;;10257201;28;20304;-80
2023/04/15 18:29:33;;;;;;;12.25;9.38;;;;;;;;;;10228941;28;20348;-77
2023/04/15 18:34:34;;;;;;;15.90;10.48;;;;;;;;;;10215545;28;20975;-79
2023/04/15 18:39:35;;;;;;;16.40;10.98;;;;;;;;;;10257028;28;20219;-78
2023/04/15 18:44:36;;;;;;;13.52;10.23;;;;;;;;;;10228547;28;20649;-78
2023/04/15 18:49:37;;;;;;;14.80;10.95;;;;;;;;;;10254296;28;20272;-79
2023/04/15 18:54:39;;;;;;;17.42;10.95;;;;;;;;;;10253451;28;20996;-77
2023/04/15 18:59:39;;;;;;;20.02;11.85;;;;;;;;;;10229364;28;20226;-77
2023/04/15 19:04:41;;;;;;;13.52;10.85;;;;;;;;;;10250867;28;20214;-78
2023/04/15 19:09:42;;;;;;;14.10;10.73;;;;;;;;;;10215429;28;20224;-80
2023/04/15 19:14:43;;;;;;;22.42;10.93;;;;;;;;;;10222276;28;20232;-81
2023/04/15 19:19:44;;;;;;;15.65;10.15;;;;;;;;;;10212776;28;20765;-77
2023/04/15 19:24:45;;;;;;;15.68;10.43;;;;;;;;;;10244262;28;20247;-78
2023/04/15 19:29:47;;;;;;;15.85;11.27;;;;;;;;;;10233879;28;20224;-78
2023/04/15 19:34:48;;;;;;;14.82;9.77;;;;;;;;;;10232822;28;20218;-79
2023/04/15 19:39:49;;;;;;;14.45;10.00;;;;;;;;;;10231552;28;20229;-80
2023/04/15 19:44:50;;;;;;;12.45;9.45;;;;;;;;;;10204649;28;20222;-80
2023/04/15 19:49:51;;;;;;;13.88;9.75;;;;;;;;;;10219840;28;20277;-79
2023/04/15 19:54:52;;;;;;;13.35;10.52;;;;;;;;;;10222164;28;20225;-79
2023/04/15 19:59:53;;;;;;;16.20;9.45;;;;;;;;;;10244080;28;20580;-78
2023/04/15 20:04:54;;;;;;;14.38;9.68;;;;;;;;;;10240409;28;20244;-85
2023/04/15 20:09:55;;;;;;;15.48;9.73;;;;;;;;;;10244253;28;20313;-79
2023/04/15 20:14:56;;;;;;;14.52;10.05;;;;;;;;;;10229314;28;20224;-79
2023/04/15 20:19:57;;;;;;;13.95;9.80;;;;;;;;;;10243838;28;20229;-80
2023/04/15 20:24:59;;;;;;;16.33;10.45;;;;;;;;;;10239846;28;20253;-78
2023/04/15 20:30:02;;;;;;;17.50;10.70;;;;;;;;;;10216320;28;20770;-77
2023/04/15 20:35:04;;;;;;;14.57;9.93;;;;;;;;;;10243133;28;20320;-80
2023/04/15 20:40:05;;;;;;;15.43;9.68;;;;;;;;;;10235222;28;20221;-82
2023/04/15 20:45:07;;;;;;;15.07;10.35;;;;;;;;;;10238085;28;20201;-79
2023/04/15 20:50:08;;;;;;;15.93;10.77;;;;;;;;;;10245542;28;20209;-81
2023/04/15 20:55:09;;;;;;;15.68;10.15;;;;;;;;;;10242983;28;20687;-81
2023/04/15 21:00:11;;;;;;;18.92;11.13;;;;;;;;;;10239547;28;20230;-78
2023/04/15 21:05:12;;;;;;;16.92;11.27;;;;;;;;;;10258484;28;20206;-78
2023/04/15 21:10:12;;;;;;;16.88;10.82;;;;;;;;;;10249278;28;20221;-79
2023/04/15 21:15:13;;;;;;;15.68;10.38;;;;;;;;;;10230694;28;20222;-76
2023/04/15 21:20:15;;;;;;;16.40;10.98;;;;;;;;;;10230984;28;20288;-77
2023/04/15 21:25:16;;;;;;;18.25;10.98;;;;;;;;;;10247787;28;20209;-79
2023/04/15 21:30:17;;;;;;;18.30;10.95;;;;;;;;;;10229668;28;20205;-77
2023/04/15 21:35:18;;;;;;;18.33;11.93;;;;;;;;;;10248787;28;20759;-78
2023/04/15 21:40:19;;;;;;;17.85;11.50;;;;;;;;;;10249956;28;20206;-77
2023/04/15 21:45:20;;;;;;;27.33;12.95;;;;;;;;;;10236264;28;20213;-77
2023/04/15 21:50:22;;;;;;;18.17;12.30;;;;;;;;;;10236528;28;20233;-77
2023/04/15 21:55:23;;;;;;;22.67;12.27;;;;;;;;;;10225933;28;20337;-80
2023/04/15 22:00:24;;;;;;;18.85;11.48;;;;;;;;;;10236690;28;20732;-76
2023/04/15 22:05:25;;;;;;;18.95;12.52;;;;;;;;;;10246296;28;20240;-77
2023/04/15 22:10:27;;;;;;;22.23;12.00;;;;;;;;;;10244780;28;20229;-78
2023/04/15 22:15:28;;;;;;;18.40;11.95;;;;;;;;;;10249647;28;20237;-80
2023/04/15 22:20:29;;;;;;;17.77;11.50;;;;;;;;;;10229672;28;20221;-77
2023/04/15 22:25:30;;;;;;;15.95;11.05;;;;;;;;;;10230954;28;20222;-77
2023/04/15 22:30:31;;;;;;;16.70;11.43;;;;;;;;;;10262466;28;20224;-75
2023/04/15 22:35:33;;;;;;;16.08;11.65;;;;;;;;;;10246843;28;20255;-76
2023/04/15 22:40:34;;;;;;;21.40;12.50;;;;;;;;;;10228733;28;20221;-79
2023/04/15 22:45:35;;;;;;;19.15;12.68;;;;;;;;;;10219742;28;20221;-78
2023/04/15 22:50:36;;;;;;;20.00;12.52;;;;;;;;;;10245381;28;21309;-77
2023/04/15 22:55:37;;;;;;;23.10;11.68;;;;;;;;;;10271380;28;20226;-79
2023/04/15 23:00:39;;;;;;;18.15;11.80;;;;;;;;;;10248051;28;20229;-78
2023/04/15 23:05:40;;;;;;;18.85;12.27;;;;;;;;;;10252404;28;20343;-77
2023/04/15 23:10:43;;;;;;;20.63;12.65;;;;;;;;;;10249043;28;20703;-78
2023/04/15 23:15:44;;;;;;;20.98;12.07;;;;;;;;;;10239048;28;20864;-78
2023/04/15 23:20:45;;;;;;;21.15;12.60;;;;;;;;;;10247700;28;20329;-79
2023/04/15 23:25:47;;;;;;;18.65;12.38;;;;;;;;;;10251793;28;20236;-78
2023/04/15 23:30:48;;;;;;;24.42;13.45;;;;;;;;;;10234627;28;20278;-78
2023/04/15 23:35:49;;;;;;;24.35;14.40;;;;;;;;;;10240574;28;20268;-78
2023/04/15 23:40:50;;;;;;;21.75;14.13;;;;;;;;;;10236248;28;20691;-78
2023/04/15 23:45:51;;;;;;;24.90;13.93;;;;;;;;;;10250245;28;20447;-78
2023/04/15 23:50:52;;;;;;;26.75;13.73;;;;;;;;;;10253701;28;20308;-80
2023/04/15 23:55:53;;;;;;;25.17;14.27;;;;;;;;;;10250681;28;20229;-77
